createdAt,value
2023-01-22T00:01:08.859Z,-0.20
2023-01-22T00:03:36.561Z,-0.20
2023-01-22T00:06:03.569Z,-0.20
2023-01-22T00:08:30.431Z,-0.10
2023-01-22T00:10:57.210Z,-0.10
2023-01-22T00:13:25.020Z,0.00
2023-01-22T00:15:52.118Z,-0.10
2023-01-22T00:18:19.262Z,0.10
2023-01-22T00:20:49.564Z,-0.10
2023-01-22T00:23:16.361Z,0.70
2023-01-22T00:25:44.412Z,0.00
2023-01-22T00:28:11.402Z,0.00
2023-01-22T00:30:38.617Z,0.10
2023-01-22T00:33:05.545Z,0.10
2023-01-22T00:35:33.880Z,0.00
2023-01-22T00:38:00.839Z,0.10
2023-01-22T00:40:27.522Z,0.20
2023-01-22T00:42:54.161Z,0.20
2023-01-22T00:45:20.881Z,0.10
2023-01-22T00:47:47.606Z,0.20
2023-01-22T00:50:14.440Z,0.30
2023-01-22T00:52:41.133Z,0.30
2023-01-22T00:55:08.005Z,0.20
2023-01-22T00:57:34.835Z,0.10
2023-01-22T01:00:01.782Z,0.40
2023-01-22T01:02:30.197Z,0.30
2023-01-22T01:04:56.916Z,0.20
2023-01-22T01:07:23.746Z,0.30
2023-01-22T01:09:50.803Z,0.20
2023-01-22T01:12:17.429Z,0.20
2023-01-22T01:14:44.148Z,0.10
2023-01-22T01:17:10.952Z,0.20
2023-01-22T01:19:37.683Z,0.20
2023-01-22T01:22:06.068Z,0.30
2023-01-22T01:24:32.727Z,0.20
2023-01-22T01:26:59.547Z,0.30
2023-01-22T01:29:26.299Z,0.30
2023-01-22T01:31:54.636Z,0.40
2023-01-22T01:34:21.519Z,0.40
2023-01-22T01:36:49.621Z,0.40
2023-01-22T01:39:16.881Z,0.30
2023-01-22T01:41:43.564Z,0.50
2023-01-22T01:44:14.918Z,0.40
2023-01-22T01:46:44.353Z,0.40
2023-01-22T01:49:17.856Z,0.60
2023-01-22T01:51:45.010Z,0.60
2023-01-22T01:54:12.427Z,0.50
2023-01-22T01:56:44.936Z,0.60
2023-01-22T01:59:13.235Z,0.50
2023-01-22T02:01:40.456Z,0.60
2023-01-22T02:04:07.272Z,0.60
2023-01-22T02:06:34.081Z,0.60
2023-01-22T02:09:01.573Z,0.50
2023-01-22T02:11:29.225Z,0.50
2023-01-22T02:14:01.565Z,0.50
2023-01-22T02:16:28.494Z,0.60
2023-01-22T02:18:55.314Z,0.50
2023-01-22T02:21:41.639Z,0.40
2023-01-22T02:24:10.145Z,0.50
2023-01-22T02:26:38.402Z,0.60
2023-01-22T02:29:07.859Z,0.80
2023-01-22T02:31:36.342Z,0.60
2023-01-22T02:34:03.952Z,0.50
2023-01-22T02:36:31.690Z,0.50
2023-01-22T02:38:58.591Z,0.60
2023-01-22T02:41:25.749Z,0.50
2023-01-22T02:43:52.410Z,0.50
2023-01-22T02:46:21.551Z,0.50
2023-01-22T02:48:48.508Z,0.50
2023-01-22T02:51:16.107Z,0.50
2023-01-22T02:53:44.896Z,0.60
2023-01-22T02:56:11.970Z,0.60
2023-01-22T02:58:39.786Z,0.60
2023-01-22T03:01:20.456Z,0.60
2023-01-22T03:03:53.615Z,0.50
2023-01-22T03:06:21.903Z,0.50
2023-01-22T03:08:58.769Z,0.50
2023-01-22T03:11:26.645Z,0.50
2023-01-22T03:14:13.007Z,0.60
2023-01-22T03:16:59.068Z,0.80
2023-01-22T03:19:44.463Z,0.70
2023-01-22T03:22:17.403Z,0.70
2023-01-22T03:24:44.642Z,0.70
2023-01-22T03:27:11.368Z,0.60
2023-01-22T03:29:38.441Z,0.60
2023-01-22T03:32:07.154Z,0.70
2023-01-22T03:34:36.742Z,0.60
2023-01-22T03:37:06.286Z,0.60
2023-01-22T03:39:33.182Z,0.60
2023-01-22T03:42:02.368Z,0.60
2023-01-22T03:44:29.668Z,0.70
2023-01-22T03:46:56.657Z,0.70
2023-01-22T03:49:24.185Z,0.70
2023-01-22T03:51:52.743Z,0.60
2023-01-22T03:54:19.489Z,0.60
2023-01-22T03:56:46.394Z,0.50
2023-01-22T03:59:28.565Z,0.50
2023-01-22T04:01:55.381Z,0.50
2023-01-22T04:04:22.291Z,0.50
2023-01-22T04:06:50.099Z,0.50
2023-01-22T04:09:16.819Z,0.60
2023-01-22T04:11:47.541Z,0.60
2023-01-22T04:14:15.844Z,0.60
2023-01-22T04:16:54.422Z,0.60
2023-01-22T04:19:48.427Z,0.60
2023-01-22T04:22:36.020Z,0.50
2023-01-22T04:25:03.607Z,0.60
2023-01-22T04:27:31.262Z,0.60
2023-01-22T04:29:58.399Z,0.50
2023-01-22T04:32:25.126Z,0.50
2023-01-22T04:35:05.274Z,0.80
2023-01-22T04:37:44.712Z,0.80
2023-01-22T04:40:12.212Z,0.70
2023-01-22T04:42:40.067Z,0.70
2023-01-22T04:45:07.260Z,0.70
2023-01-22T04:47:33.946Z,0.60
2023-01-22T04:50:00.728Z,0.60
2023-01-22T04:52:27.641Z,0.50
2023-01-22T04:54:55.132Z,0.50
2023-01-22T04:57:25.044Z,0.50
2023-01-22T04:59:51.860Z,0.50
2023-01-22T05:02:18.647Z,0.50
2023-01-22T05:04:45.500Z,0.40
2023-01-22T05:07:13.331Z,0.50
2023-01-22T05:09:40.007Z,0.50
2023-01-22T05:12:06.728Z,0.60
2023-01-22T05:14:39.874Z,0.60
2023-01-22T05:17:07.146Z,0.50
2023-01-22T05:19:35.467Z,0.50
2023-01-22T05:22:04.820Z,0.50
2023-01-22T05:24:32.450Z,0.50
2023-01-22T05:26:59.314Z,0.60
2023-01-22T05:29:32.950Z,0.60
2023-01-22T05:32:12.904Z,0.70
2023-01-22T05:34:46.274Z,0.70
2023-01-22T05:37:13.428Z,0.70
2023-01-22T05:39:40.178Z,0.70
2023-01-22T05:42:13.204Z,0.70
2023-01-22T05:44:40.024Z,0.70
2023-01-22T05:47:06.714Z,0.80
2023-01-22T05:49:53.729Z,0.70
2023-01-22T05:52:21.249Z,0.70
2023-01-22T05:54:48.007Z,0.70
2023-01-22T05:57:14.722Z,0.70
2023-01-22T05:59:41.464Z,0.60
2023-01-22T06:02:08.828Z,0.70
2023-01-22T06:04:40.844Z,0.70
2023-01-22T06:07:18.309Z,0.80
2023-01-22T06:09:45.600Z,0.70
2023-01-22T06:12:12.464Z,0.70
2023-01-22T06:14:39.767Z,0.70
2023-01-22T06:17:07.072Z,0.70
2023-01-22T06:19:36.497Z,0.70
2023-01-22T06:22:04.636Z,0.70
2023-01-22T06:24:39.123Z,0.70
2023-01-22T06:27:08.316Z,0.60
2023-01-22T06:29:40.997Z,0.60
2023-01-22T06:32:07.811Z,0.60
2023-01-22T06:34:34.555Z,0.70
2023-01-22T06:37:02.708Z,0.70
2023-01-22T06:39:32.657Z,0.70
2023-01-22T06:42:04.733Z,0.70
2023-01-22T06:44:31.457Z,0.70
2023-01-22T06:46:58.274Z,0.60
2023-01-22T06:49:26.903Z,0.70
2023-01-22T06:51:54.677Z,0.70
2023-01-22T06:54:21.456Z,0.70
2023-01-22T06:56:48.160Z,0.70
2023-01-22T06:59:16.431Z,0.70
2023-01-22T07:01:43.254Z,0.70
2023-01-22T07:04:10.793Z,0.70
2023-01-22T07:06:37.420Z,0.70
2023-01-22T07:09:04.138Z,0.70
2023-01-22T07:11:30.752Z,0.70
2023-01-22T07:13:57.497Z,0.80
2023-01-22T07:16:24.323Z,0.80
2023-01-22T07:18:51.004Z,0.90
2023-01-22T07:21:17.665Z,1.00
2023-01-22T07:23:44.391Z,1.00
2023-01-22T07:26:11.051Z,1.00
2023-01-22T07:28:37.748Z,1.10
2023-01-22T07:31:05.229Z,0.70
2023-01-22T07:33:32.034Z,1.10
2023-01-22T07:35:58.747Z,1.10
2023-01-22T07:38:28.799Z,1.20
2023-01-22T07:41:14.142Z,1.20
2023-01-22T07:43:52.527Z,1.20
2023-01-22T07:46:19.196Z,1.10
2023-01-22T07:48:45.978Z,1.10
2023-01-22T07:51:12.946Z,1.10
2023-01-22T07:53:40.149Z,1.00
2023-01-22T07:56:06.997Z,1.10
2023-01-22T07:58:33.745Z,1.10
2023-01-22T08:01:00.729Z,1.10
2023-01-22T08:03:27.439Z,1.00
2023-01-22T08:05:54.114Z,1.00
2023-01-22T08:08:20.742Z,1.10
2023-01-22T08:10:47.691Z,1.10
2023-01-22T08:13:14.529Z,1.10
2023-01-22T08:15:45.081Z,1.20
2023-01-22T08:18:11.767Z,1.20
2023-01-22T08:20:38.431Z,1.20
2023-01-22T08:23:05.094Z,1.20
2023-01-22T08:25:31.737Z,1.20
2023-01-22T08:28:01.146Z,1.10
2023-01-22T08:30:27.916Z,1.30
2023-01-22T08:32:55.139Z,1.50
2023-01-22T08:35:21.909Z,1.50
2023-01-22T08:37:48.584Z,1.60
2023-01-22T08:40:15.567Z,1.70
2023-01-22T08:42:42.450Z,1.70
2023-01-22T08:45:09.455Z,1.80
2023-01-22T08:47:36.130Z,1.60
2023-01-22T08:50:03.846Z,1.70
2023-01-22T08:52:30.480Z,1.90
2023-01-22T08:54:57.270Z,1.80
2023-01-22T08:57:23.904Z,2.00
2023-01-22T09:00:00.829Z,2.00
2023-01-22T09:02:28.373Z,1.80
2023-01-22T09:04:55.118Z,1.90
2023-01-22T09:07:21.765Z,2.00
2023-01-22T09:09:48.445Z,2.10
2023-01-22T09:12:15.087Z,2.10
2023-01-22T09:14:41.761Z,2.10
2023-01-22T09:17:08.693Z,2.00
2023-01-22T09:19:35.392Z,2.10
2023-01-22T09:22:06.431Z,2.20
2023-01-22T09:24:33.169Z,2.30
2023-01-22T09:26:59.843Z,2.40
2023-01-22T09:29:26.600Z,2.40
2023-01-22T09:31:53.266Z,2.40
2023-01-22T09:34:20.030Z,2.50
2023-01-22T09:36:47.057Z,2.50
2023-01-22T09:39:13.721Z,2.50
2023-01-22T09:41:42.778Z,2.60
2023-01-22T09:44:15.506Z,2.60
2023-01-22T09:46:51.509Z,2.50
2023-01-22T09:49:20.273Z,2.50
2023-01-22T09:51:49.059Z,2.50
2023-01-22T09:54:17.269Z,2.50
2023-01-22T09:56:45.741Z,2.70
2023-01-22T09:59:20.359Z,2.80
2023-01-22T10:01:51.626Z,2.80
2023-01-22T10:04:22.188Z,2.90
2023-01-22T10:06:49.852Z,2.90
2023-01-22T10:09:18.787Z,3.00
2023-01-22T10:11:51.548Z,3.00
2023-01-22T10:14:19.134Z,3.00
2023-01-22T10:16:46.036Z,3.00
2023-01-22T10:19:27.855Z,2.90
2023-01-22T10:21:57.658Z,2.80
2023-01-22T10:24:24.435Z,2.90
2023-01-22T10:26:54.235Z,2.80
2023-01-22T10:29:25.102Z,2.80
2023-01-22T10:31:53.539Z,3.00
2023-01-22T10:34:23.102Z,2.90
2023-01-22T10:36:51.130Z,2.80
2023-01-22T10:39:18.039Z,2.80
2023-01-22T10:41:45.971Z,2.60
2023-01-22T10:44:19.273Z,2.60
2023-01-22T10:46:49.917Z,2.70
2023-01-22T10:49:18.092Z,2.70
2023-01-22T10:51:55.465Z,2.90
2023-01-22T10:54:22.142Z,3.00
2023-01-22T10:56:49.178Z,3.00
2023-01-22T10:59:24.126Z,2.90
2023-01-22T11:02:01.722Z,3.00
2023-01-22T11:04:29.740Z,2.80
2023-01-22T11:07:02.178Z,2.90
2023-01-22T11:09:31.797Z,3.00
2023-01-22T11:12:09.923Z,2.90
2023-01-22T11:14:37.291Z,2.90
2023-01-22T11:17:09.859Z,3.00
2023-01-22T11:19:40.634Z,3.10
2023-01-22T11:22:17.198Z,3.20
2023-01-22T11:24:52.833Z,3.30
2023-01-22T11:27:34.077Z,3.40
2023-01-22T11:30:00.752Z,3.50
2023-01-22T11:32:30.560Z,3.50
2023-01-22T11:35:06.691Z,3.50
2023-01-22T11:37:33.377Z,3.80
2023-01-22T11:40:12.796Z,4.00
2023-01-22T11:42:39.656Z,4.10
2023-01-22T11:45:16.594Z,4.00
2023-01-22T11:47:55.501Z,4.00
2023-01-22T11:50:30.518Z,3.90
2023-01-22T11:53:15.774Z,4.00
2023-01-22T11:55:52.115Z,4.10
2023-01-22T11:58:37.756Z,4.30
2023-01-22T12:01:07.398Z,4.30
2023-01-22T12:03:52.958Z,4.30
2023-01-22T12:06:30.651Z,4.40
2023-01-22T12:09:15.178Z,4.20
2023-01-22T12:11:52.576Z,4.20
2023-01-22T12:14:37.645Z,4.00
2023-01-22T12:17:21.019Z,4.10
2023-01-22T12:20:06.970Z,4.10
2023-01-22T12:22:51.861Z,4.10
2023-01-22T12:25:41.743Z,3.80
2023-01-22T12:28:11.996Z,3.80
2023-01-22T12:30:54.375Z,4.10
2023-01-22T12:33:23.792Z,3.80
2023-01-22T12:35:52.826Z,3.80
2023-01-22T12:38:24.582Z,4.10
2023-01-22T12:40:51.225Z,4.20
2023-01-22T12:43:20.312Z,4.40
2023-01-22T12:46:05.792Z,4.60
2023-01-22T12:48:32.470Z,4.60
2023-01-22T12:50:59.214Z,4.80
2023-01-22T12:53:28.727Z,5.00
2023-01-22T12:55:59.892Z,4.60
2023-01-22T12:58:30.272Z,4.60
2023-01-22T13:01:06.452Z,4.30
2023-01-22T13:03:33.564Z,4.10
2023-01-22T13:06:01.959Z,3.80
2023-01-22T13:08:39.621Z,3.70
2023-01-22T13:11:13.604Z,3.70
2023-01-22T13:13:44.886Z,3.80
2023-01-22T13:16:14.958Z,3.70
2023-01-22T13:18:43.656Z,3.70
2023-01-22T13:21:11.679Z,3.80
2023-01-22T13:23:42.746Z,4.10
2023-01-22T13:26:22.679Z,4.10
2023-01-22T13:28:57.158Z,4.10
2023-01-22T13:31:24.067Z,4.30
2023-01-22T13:33:54.257Z,4.40
2023-01-22T13:36:20.933Z,4.50
2023-01-22T13:38:51.749Z,4.40
2023-01-22T13:41:23.459Z,4.50
2023-01-22T13:43:50.130Z,4.40
2023-01-22T13:46:16.892Z,4.30
2023-01-22T13:48:43.917Z,4.30
2023-01-22T13:51:18.418Z,4.20
2023-01-22T13:53:54.496Z,4.00
2023-01-22T13:56:22.919Z,4.20
2023-01-22T13:58:49.837Z,4.30
2023-01-22T14:01:27.357Z,4.40
2023-01-22T14:04:05.440Z,4.50
2023-01-22T14:06:42.986Z,4.50
2023-01-22T14:09:09.871Z,4.60
2023-01-22T14:11:37.072Z,4.30
2023-01-22T14:14:13.817Z,4.30
2023-01-22T14:16:40.693Z,4.20
2023-01-22T14:19:07.447Z,4.00
2023-01-22T14:21:34.205Z,3.90
2023-01-22T14:24:00.874Z,3.70
2023-01-22T14:26:27.587Z,3.70
2023-01-22T14:28:54.238Z,3.60
2023-01-22T14:31:21.090Z,3.50
2023-01-22T14:33:47.722Z,3.40
2023-01-22T14:36:14.405Z,3.30
2023-01-22T14:38:41.029Z,3.40
2023-01-22T14:41:07.771Z,3.30
2023-01-22T14:43:35.551Z,3.30
2023-01-22T14:46:06.226Z,3.20
2023-01-22T14:48:32.965Z,3.20
2023-01-22T14:50:59.870Z,3.20
2023-01-22T14:53:26.571Z,3.30
2023-01-22T14:55:53.281Z,3.00
2023-01-22T14:58:20.015Z,3.00
2023-01-22T15:00:46.682Z,3.10
2023-01-22T15:03:13.460Z,3.00
2023-01-22T15:05:40.795Z,2.90
2023-01-22T15:08:07.426Z,2.90
2023-01-22T15:10:34.198Z,2.90
2023-01-22T15:13:00.874Z,2.70
2023-01-22T15:15:28.450Z,2.70
2023-01-22T15:17:56.893Z,2.60
2023-01-22T15:20:24.036Z,2.60
2023-01-22T15:22:51.018Z,2.60
2023-01-22T15:25:17.980Z,2.70
2023-01-22T15:27:44.731Z,2.60
2023-01-22T15:30:12.635Z,2.60
2023-01-22T15:32:39.695Z,2.60
2023-01-22T15:35:06.574Z,2.60
2023-01-22T15:37:33.326Z,2.60
2023-01-22T15:40:00.190Z,2.50
2023-01-22T15:42:26.930Z,2.60
2023-01-22T15:44:53.578Z,2.60
2023-01-22T15:47:20.269Z,2.50
2023-01-22T15:49:47.046Z,2.50
2023-01-22T15:52:13.733Z,2.40
2023-01-22T15:54:40.389Z,2.30
2023-01-22T15:57:07.044Z,2.30
2023-01-22T15:59:33.707Z,2.30
2023-01-22T16:02:00.539Z,2.30
2023-01-22T16:04:27.308Z,2.30
2023-01-22T16:06:53.976Z,2.30
2023-01-22T16:09:20.670Z,2.30
2023-01-22T16:11:47.371Z,2.30
2023-01-22T16:14:14.100Z,2.30
2023-01-22T16:16:40.833Z,2.20
2023-01-22T16:19:08.049Z,2.20
2023-01-22T16:21:35.201Z,2.20
2023-01-22T16:24:02.672Z,2.30
2023-01-22T16:26:30.797Z,2.20
2023-01-22T16:28:58.275Z,2.20
2023-01-22T16:31:26.237Z,2.20
2023-01-22T16:33:54.745Z,2.10
2023-01-22T16:36:22.394Z,2.20
2023-01-22T16:38:49.462Z,2.10
2023-01-22T16:41:24.306Z,2.10
2023-01-22T16:43:51.502Z,2.00
2023-01-22T16:46:18.876Z,2.00
2023-01-22T16:48:46.075Z,2.00
2023-01-22T16:51:19.847Z,2.00
2023-01-22T16:53:46.912Z,2.10
2023-01-22T16:56:13.834Z,2.00
2023-01-22T16:58:40.575Z,2.00
2023-01-22T17:01:10.836Z,2.00
2023-01-22T17:03:38.161Z,2.00
2023-01-22T17:06:05.112Z,2.10
2023-01-22T17:08:31.981Z,2.00
2023-01-22T17:10:58.716Z,2.00
2023-01-22T17:13:25.403Z,2.10
2023-01-22T17:15:53.546Z,2.00
2023-01-22T17:18:20.347Z,1.90
2023-01-22T17:21:01.379Z,1.90
2023-01-22T17:23:28.702Z,2.00
2023-01-22T17:25:55.346Z,1.90
2023-01-22T17:28:22.100Z,1.90
2023-01-22T17:30:49.130Z,1.90
2023-01-22T17:33:15.939Z,1.90
2023-01-22T17:35:42.596Z,1.90
2023-01-22T17:38:10.485Z,1.90
2023-01-22T17:40:37.217Z,1.90
2023-01-22T17:43:04.152Z,1.90
2023-01-22T17:45:30.824Z,1.90
2023-01-22T17:47:57.965Z,1.90
2023-01-22T17:50:24.613Z,1.90
2023-01-22T17:52:51.994Z,1.90
2023-01-22T17:55:18.905Z,1.80
2023-01-22T17:57:45.753Z,1.90
2023-01-22T18:00:12.706Z,1.90
2023-01-22T18:02:39.400Z,1.80
2023-01-22T18:05:07.007Z,1.70
2023-01-22T18:07:35.337Z,1.70
2023-01-22T18:10:01.969Z,1.70
2023-01-22T18:12:28.740Z,1.70
2023-01-22T18:14:55.390Z,1.70
2023-01-22T18:17:22.117Z,1.70
2023-01-22T18:19:48.858Z,1.70
2023-01-22T18:22:15.629Z,1.70
2023-01-22T18:24:44.270Z,1.70
2023-01-22T18:27:11.174Z,1.70
2023-01-22T18:29:37.837Z,1.70
2023-01-22T18:32:04.653Z,1.70
2023-01-22T18:34:31.367Z,1.80
2023-01-22T18:36:58.132Z,1.80
2023-01-22T18:39:25.879Z,1.70
2023-01-22T18:41:52.610Z,1.70
2023-01-22T18:44:19.875Z,1.60
2023-01-22T18:46:48.428Z,1.60
2023-01-22T18:49:17.442Z,1.60
2023-01-22T18:51:45.597Z,1.60
2023-01-22T18:54:12.591Z,1.60
2023-01-22T18:56:39.675Z,1.60
2023-01-22T18:59:06.378Z,1.60
2023-01-22T19:01:34.691Z,1.60
2023-01-22T19:04:05.884Z,1.60
2023-01-22T19:06:36.718Z,1.60
2023-01-22T19:09:03.939Z,1.60
2023-01-22T19:11:31.706Z,1.60
2023-01-22T19:13:59.695Z,1.60
2023-01-22T19:16:27.118Z,1.60
2023-01-22T19:18:57.651Z,1.60
2023-01-22T19:21:25.163Z,1.50
2023-01-22T19:23:53.321Z,1.60
2023-01-22T19:26:21.591Z,1.60
2023-01-22T19:28:48.965Z,1.60
2023-01-22T19:31:17.040Z,1.60
2023-01-22T19:33:43.973Z,1.60
2023-01-22T19:36:11.251Z,1.60
2023-01-22T19:38:38.154Z,1.60
2023-01-22T19:41:05.483Z,1.60
2023-01-22T19:43:32.626Z,1.50
2023-01-22T19:46:04.084Z,1.50
2023-01-22T19:48:31.337Z,1.50
2023-01-22T19:51:01.965Z,1.40
2023-01-22T19:53:29.179Z,1.40
2023-01-22T19:55:57.624Z,1.50
2023-01-22T19:58:24.418Z,1.40
2023-01-22T20:00:51.821Z,1.40
2023-01-22T20:03:18.494Z,1.40
2023-01-22T20:05:45.160Z,1.40
2023-01-22T20:08:13.585Z,1.40
2023-01-22T20:10:40.869Z,1.40
2023-01-22T20:13:08.339Z,1.40
2023-01-22T20:15:38.674Z,1.40
2023-01-22T20:18:06.190Z,1.30
2023-01-22T20:20:33.291Z,1.30
2023-01-22T20:23:00.002Z,1.30
2023-01-22T20:25:28.030Z,1.30
2023-01-22T20:27:54.716Z,1.30
2023-01-22T20:30:21.424Z,1.20
2023-01-22T20:32:48.044Z,1.30
2023-01-22T20:35:16.099Z,1.20
2023-01-22T20:37:43.005Z,1.20
2023-01-22T20:40:10.064Z,1.20
2023-01-22T20:42:36.752Z,1.20
2023-01-22T20:45:03.886Z,1.20
2023-01-22T20:47:33.436Z,1.20
2023-01-22T20:50:00.148Z,1.20
2023-01-22T20:52:26.902Z,1.20
2023-01-22T20:55:01.403Z,1.20
2023-01-22T20:57:29.651Z,1.30
2023-01-22T20:59:56.408Z,1.20
2023-01-22T21:02:23.453Z,1.20
2023-01-22T21:04:51.619Z,1.30
2023-01-22T21:07:18.425Z,1.30
2023-01-22T21:09:45.317Z,1.20
2023-01-22T21:12:13.137Z,1.20
2023-01-22T21:14:40.017Z,1.20
2023-01-22T21:17:06.750Z,1.20
2023-01-22T21:19:33.552Z,1.20
2023-01-22T21:22:01.043Z,1.20
2023-01-22T21:24:27.901Z,1.20
2023-01-22T21:26:54.720Z,1.20
2023-01-22T21:29:22.215Z,1.20
2023-01-22T21:31:50.185Z,1.20
2023-01-22T21:34:22.428Z,1.20
2023-01-22T21:36:50.080Z,1.20
2023-01-22T21:39:18.688Z,1.20
2023-01-22T21:41:45.481Z,1.30
2023-01-22T21:44:31.884Z,1.20
2023-01-22T21:46:58.689Z,1.20
2023-01-22T21:49:25.658Z,1.30
2023-01-22T21:51:52.309Z,1.20
2023-01-22T21:54:20.418Z,1.10
2023-01-22T21:56:47.076Z,1.10
2023-01-22T21:59:13.967Z,1.10
2023-01-22T22:01:40.854Z,1.20
2023-01-22T22:04:08.301Z,1.10
2023-01-22T22:06:35.373Z,1.10
2023-01-22T22:09:03.153Z,1.20
2023-01-22T22:11:29.934Z,1.10
2023-01-22T22:13:56.716Z,1.20
2023-01-22T22:16:23.995Z,1.20
2023-01-22T22:18:50.765Z,1.20
2023-01-22T22:21:17.475Z,1.20
2023-01-22T22:23:44.253Z,1.20
2023-01-22T22:26:10.986Z,1.10
2023-01-22T22:28:37.705Z,1.10
2023-01-22T22:31:11.728Z,1.10
2023-01-22T22:33:39.178Z,1.10
2023-01-22T22:36:05.945Z,1.10
2023-01-22T22:38:32.673Z,1.10
2023-01-22T22:41:00.714Z,1.10
2023-01-22T22:43:30.794Z,1.00
2023-01-22T22:46:01.851Z,1.00
2023-01-22T22:48:28.573Z,1.00
2023-01-22T22:50:55.229Z,0.90
2023-01-22T22:53:22.167Z,1.00
2023-01-22T22:55:48.895Z,1.00
2023-01-22T22:58:15.626Z,1.00
2023-01-22T23:00:42.898Z,0.90
2023-01-22T23:03:09.580Z,0.90
2023-01-22T23:05:37.660Z,0.90
2023-01-22T23:08:04.846Z,0.80
2023-01-22T23:10:31.589Z,0.80
2023-01-22T23:12:59.613Z,0.70
2023-01-22T23:15:27.079Z,0.70
2023-01-22T23:17:54.435Z,0.70
2023-01-22T23:20:22.230Z,0.70
2023-01-22T23:22:51.112Z,0.70
2023-01-22T23:25:17.795Z,0.70
2023-01-22T23:27:44.831Z,0.70
2023-01-22T23:30:12.250Z,0.80
2023-01-22T23:32:39.252Z,0.90
2023-01-22T23:35:06.187Z,0.90
2023-01-22T23:37:32.840Z,0.90
2023-01-22T23:39:59.517Z,1.00
2023-01-22T23:42:26.244Z,0.90
2023-01-22T23:44:52.886Z,0.90
2023-01-22T23:47:20.781Z,0.90
2023-01-22T23:49:47.464Z,1.00
2023-01-22T23:52:14.122Z,1.00
2023-01-22T23:54:40.815Z,1.00
2023-01-22T23:57:07.503Z,1.00
2023-01-22T23:59:34.338Z,1.00
